sensor_id;sensor_type;location;lat;lon;timestamp;P1;durP1;ratioP1;P2;durP2;ratioP2
71104;SDS011;58760;48.716;8.962;2023-04-15T00:00:07;7.07;;;2.38;;
71104;SDS011;58760;48.716;8.962;2023-04-15T00:02:34;5.57;;;2.25;;
71104;SDS011;58760;48.716;8.962;2023-04-15T00:05:00;6.40;;;2.63;;
71104;SDS011;58760;48.716;8.962;2023-04-15T00:07:25;8.52;;;2.30;;
71104;SDS011;58760;48.716;8.962;2023-04-15T00:09:51;7.75;;;2.67;;
71104;SDS011;58760;48.716;8.962;2023-04-15T00:12:19;6.57;;;2.80;;
71104;SDS011;58760;48.716;8.962;2023-04-15T00:14:45;8.68;;;3.03;;
71104;SDS011;58760;48.716;8.962;2023-04-15T00:17:11;8.57;;;3.20;;
71104;SDS011;58760;48.716;8.962;2023-04-15T00:19:37;7.22;;;2.80;;
71104;SDS011;58760;48.716;8.962;2023-04-15T00:22:02;7.05;;;2.83;;
71104;SDS011;58760;48.716;8.962;2023-04-15T00:24:28;7.63;;;2.67;;
71104;SDS011;58760;48.716;8.962;2023-04-15T00:26:55;7.07;;;2.60;;
71104;SDS011;58760;48.716;8.962;2023-04-15T00:29:20;7.72;;;3.28;;
71104;SDS011;58760;48.716;8.962;2023-04-15T00:31:46;8.57;;;2.42;;
71104;SDS011;58760;48.716;8.962;2023-04-15T00:34:12;7.53;;;2.83;;
71104;SDS011;58760;48.716;8.962;2023-04-15T00:36:37;6.72;;;2.40;;
71104;SDS011;58760;48.716;8.962;2023-04-15T00:39:03;7.68;;;2.40;;
71104;SDS011;58760;48.716;8.962;2023-04-15T00:41:29;7.88;;;3.20;;
71104;SDS011;58760;48.716;8.962;2023-04-15T00:43:55;7.20;;;2.60;;
71104;SDS011;58760;48.716;8.962;2023-04-15T00:46:21;7.28;;;3.10;;
71104;SDS011;58760;48.716;8.962;2023-04-15T00:48:47;7.50;;;2.50;;
71104;SDS011;58760;48.716;8.962;2023-04-15T00:51:13;10.02;;;3.20;;
71104;SDS011;58760;48.716;8.962;2023-04-15T00:53:39;8.57;;;2.83;;
71104;SDS011;58760;48.716;8.962;2023-04-15T00:56:05;7.75;;;2.55;;
71104;SDS011;58760;48.716;8.962;2023-04-15T00:58:30;8.95;;;2.55;;
71104;SDS011;58760;48.716;8.962;2023-04-15T01:00:56;8.57;;;3.00;;
71104;SDS011;58760;48.716;8.962;2023-04-15T01:03:23;8.98;;;2.75;;
71104;SDS011;58760;48.716;8.962;2023-04-15T01:05:49;7.00;;;2.50;;
71104;SDS011;58760;48.716;8.962;2023-04-15T01:08:15;6.75;;;2.50;;
71104;SDS011;58760;48.716;8.962;2023-04-15T01:10:40;5.55;;;2.65;;
71104;SDS011;58760;48.716;8.962;2023-04-15T01:13:06;6.50;;;2.10;;
71104;SDS011;58760;48.716;8.962;2023-04-15T01:15:31;6.65;;;2.35;;
71104;SDS011;58760;48.716;8.962;2023-04-15T01:18:00;5.75;;;2.20;;
71104;SDS011;58760;48.716;8.962;2023-04-15T01:20:27;7.60;;;2.28;;
71104;SDS011;58760;48.716;8.962;2023-04-15T01:22:53;7.55;;;2.90;;
71104;SDS011;58760;48.716;8.962;2023-04-15T01:25:30;6.85;;;3.25;;
71104;SDS011;58760;48.716;8.962;2023-04-15T01:27:59;5.43;;;2.20;;
71104;SDS011;58760;48.716;8.962;2023-04-15T01:30:25;5.45;;;2.33;;
71104;SDS011;58760;48.716;8.962;2023-04-15T01:32:51;5.55;;;2.45;;
71104;SDS011;58760;48.716;8.962;2023-04-15T01:35:17;6.88;;;2.63;;
71104;SDS011;58760;48.716;8.962;2023-04-15T01:37:43;7.47;;;2.20;;
71104;SDS011;58760;48.716;8.962;2023-04-15T01:40:09;7.30;;;2.10;;
71104;SDS011;58760;48.716;8.962;2023-04-15T01:42:35;7.05;;;2.30;;
71104;SDS011;58760;48.716;8.962;2023-04-15T01:45:01;6.80;;;2.25;;
71104;SDS011;58760;48.716;8.962;2023-04-15T01:47:27;7.00;;;2.42;;
71104;SDS011;58760;48.716;8.962;2023-04-15T01:49:52;5.20;;;1.90;;
71104;SDS011;58760;48.716;8.962;2023-04-15T01:52:18;7.90;;;2.78;;
71104;SDS011;58760;48.716;8.962;2023-04-15T01:54:43;7.57;;;2.55;;
71104;SDS011;58760;48.716;8.962;2023-04-15T01:57:09;8.02;;;2.30;;
71104;SDS011;58760;48.716;8.962;2023-04-15T01:59:35;7.00;;;2.30;;
71104;SDS011;58760;48.716;8.962;2023-04-15T02:02:01;8.68;;;2.78;;
71104;SDS011;58760;48.716;8.962;2023-04-15T02:04:27;12.77;;;2.90;;
71104;SDS011;58760;48.716;8.962;2023-04-15T02:06:52;8.52;;;2.28;;
71104;SDS011;58760;48.716;8.962;2023-04-15T02:09:18;5.70;;;2.38;;
71104;SDS011;58760;48.716;8.962;2023-04-15T02:11:44;7.32;;;2.70;;
71104;SDS011;58760;48.716;8.962;2023-04-15T02:14:09;7.13;;;2.45;;
71104;SDS011;58760;48.716;8.962;2023-04-15T02:16:35;7.55;;;2.63;;
71104;SDS011;58760;48.716;8.962;2023-04-15T02:19:00;8.38;;;2.78;;
71104;SDS011;58760;48.716;8.962;2023-04-15T02:21:26;5.32;;;2.25;;
71104;SDS011;58760;48.716;8.962;2023-04-15T02:23:51;6.88;;;2.58;;
71104;SDS011;58760;48.716;8.962;2023-04-15T02:26:18;9.25;;;2.53;;
71104;SDS011;58760;48.716;8.962;2023-04-15T02:28:45;5.10;;;2.22;;
71104;SDS011;58760;48.716;8.962;2023-04-15T02:31:11;6.38;;;2.28;;
71104;SDS011;58760;48.716;8.962;2023-04-15T02:33:36;7.72;;;3.10;;
71104;SDS011;58760;48.716;8.962;2023-04-15T02:36:02;6.97;;;2.40;;
71104;SDS011;58760;48.716;8.962;2023-04-15T02:38:28;8.07;;;2.20;;
71104;SDS011;58760;48.716;8.962;2023-04-15T02:40:53;6.28;;;2.40;;
71104;SDS011;58760;48.716;8.962;2023-04-15T02:43:19;7.60;;;2.58;;
71104;SDS011;58760;48.716;8.962;2023-04-15T02:45:44;9.75;;;3.00;;
71104;SDS011;58760;48.716;8.962;2023-04-15T02:48:11;9.30;;;2.53;;
71104;SDS011;58760;48.716;8.962;2023-04-15T02:50:37;7.75;;;2.75;;
71104;SDS011;58760;48.716;8.962;2023-04-15T02:53:05;6.22;;;2.40;;
71104;SDS011;58760;48.716;8.962;2023-04-15T02:55:31;8.38;;;3.60;;
71104;SDS011;58760;48.716;8.962;2023-04-15T02:57:57;9.07;;;2.92;;
71104;SDS011;58760;48.716;8.962;2023-04-15T03:00:24;7.95;;;3.15;;
71104;SDS011;58760;48.716;8.962;2023-04-15T03:02:50;6.05;;;2.45;;
71104;SDS011;58760;48.716;8.962;2023-04-15T03:05:20;8.13;;;2.72;;
71104;SDS011;58760;48.716;8.962;2023-04-15T03:07:49;6.40;;;2.45;;
71104;SDS011;58760;48.716;8.962;2023-04-15T03:10:15;7.03;;;2.40;;
71104;SDS011;58760;48.716;8.962;2023-04-15T03:12:40;6.20;;;2.28;;
71104;SDS011;58760;48.716;8.962;2023-04-15T03:15:06;5.78;;;2.22;;
71104;SDS011;58760;48.716;8.962;2023-04-15T03:17:32;6.15;;;2.40;;
71104;SDS011;58760;48.716;8.962;2023-04-15T03:19:57;8.00;;;2.47;;
71104;SDS011;58760;48.716;8.962;2023-04-15T03:22:23;6.78;;;2.20;;
71104;SDS011;58760;48.716;8.962;2023-04-15T03:24:49;5.70;;;2.42;;
71104;SDS011;58760;48.716;8.962;2023-04-15T03:27:14;10.38;;;2.30;;
71104;SDS011;58760;48.716;8.962;2023-04-15T03:29:40;7.07;;;2.20;;
71104;SDS011;58760;48.716;8.962;2023-04-15T03:32:05;10.00;;;2.55;;
71104;SDS011;58760;48.716;8.962;2023-04-15T03:34:31;7.70;;;2.80;;
71104;SDS011;58760;48.716;8.962;2023-04-15T03:36:56;7.93;;;2.65;;
71104;SDS011;58760;48.716;8.962;2023-04-15T03:39:21;6.82;;;2.30;;
71104;SDS011;58760;48.716;8.962;2023-04-15T03:41:47;5.90;;;2.10;;
71104;SDS011;58760;48.716;8.962;2023-04-15T03:44:12;5.60;;;2.40;;
71104;SDS011;58760;48.716;8.962;2023-04-15T03:46:38;6.63;;;2.22;;
71104;SDS011;58760;48.716;8.962;2023-04-15T03:49:05;4.97;;;2.38;;
71104;SDS011;58760;48.716;8.962;2023-04-15T03:51:31;7.60;;;2.40;;
71104;SDS011;58760;48.716;8.962;2023-04-15T03:53:56;6.68;;;2.42;;
71104;SDS011;58760;48.716;8.962;2023-04-15T03:56:22;6.97;;;2.30;;
71104;SDS011;58760;48.716;8.962;2023-04-15T03:58:48;7.85;;;2.63;;
71104;SDS011;58760;48.716;8.962;2023-04-15T04:01:13;7.07;;;2.10;;
71104;SDS011;58760;48.716;8.962;2023-04-15T04:03:39;4.72;;;2.17;;
71104;SDS011;58760;48.716;8.962;2023-04-15T04:06:05;6.45;;;2.03;;
71104;SDS011;58760;48.716;8.962;2023-04-15T04:08:30;7.22;;;2.60;;
71104;SDS011;58760;48.716;8.962;2023-04-15T04:10:56;8.23;;;3.40;;
71104;SDS011;58760;48.716;8.962;2023-04-15T04:13:22;6.72;;;2.35;;
71104;SDS011;58760;48.716;8.962;2023-04-15T04:15:47;6.57;;;2.40;;
71104;SDS011;58760;48.716;8.962;2023-04-15T04:18:12;11.40;;;2.85;;
71104;SDS011;58760;48.716;8.962;2023-04-15T04:20:38;8.98;;;2.40;;
71104;SDS011;58760;48.716;8.962;2023-04-15T04:23:03;5.95;;;2.28;;
71104;SDS011;58760;48.716;8.962;2023-04-15T04:25:29;7.40;;;2.38;;
71104;SDS011;58760;48.716;8.962;2023-04-15T04:27:54;5.53;;;1.90;;
71104;SDS011;58760;48.716;8.962;2023-04-15T04:30:20;8.35;;;2.40;;
71104;SDS011;58760;48.716;8.962;2023-04-15T04:32:46;9.02;;;2.45;;
71104;SDS011;58760;48.716;8.962;2023-04-15T04:35:12;8.10;;;2.67;;
71104;SDS011;58760;48.716;8.962;2023-04-15T04:37:37;9.20;;;2.30;;
71104;SDS011;58760;48.716;8.962;2023-04-15T04:40:02;7.75;;;2.40;;
71104;SDS011;58760;48.716;8.962;2023-04-15T04:42:28;6.57;;;2.20;;
71104;SDS011;58760;48.716;8.962;2023-04-15T04:44:54;8.50;;;2.20;;
71104;SDS011;58760;48.716;8.962;2023-04-15T04:47:19;7.65;;;2.60;;
71104;SDS011;58760;48.716;8.962;2023-04-15T04:49:45;11.75;;;2.58;;
71104;SDS011;58760;48.716;8.962;2023-04-15T04:52:11;7.80;;;2.30;;
71104;SDS011;58760;48.716;8.962;2023-04-15T04:54:36;6.88;;;2.47;;
71104;SDS011;58760;48.716;8.962;2023-04-15T04:57:02;6.20;;;2.20;;
71104;SDS011;58760;48.716;8.962;2023-04-15T04:59:27;7.63;;;2.70;;
71104;SDS011;58760;48.716;8.962;2023-04-15T05:05:15;5.70;;;2.33;;
71104;SDS011;58760;48.716;8.962;2023-04-15T05:07:40;5.03;;;2.00;;
71104;SDS011;58760;48.716;8.962;2023-04-15T05:10:06;5.70;;;1.95;;
71104;SDS011;58760;48.716;8.962;2023-04-15T05:12:32;8.43;;;2.42;;
71104;SDS011;58760;48.716;8.962;2023-04-15T05:14:57;7.00;;;2.10;;
71104;SDS011;58760;48.716;8.962;2023-04-15T05:17:23;6.70;;;2.65;;
71104;SDS011;58760;48.716;8.962;2023-04-15T05:19:48;7.63;;;2.10;;
71104;SDS011;58760;48.716;8.962;2023-04-15T05:22:14;6.80;;;2.40;;
71104;SDS011;58760;48.716;8.962;2023-04-15T05:24:39;6.45;;;2.10;;
71104;SDS011;58760;48.716;8.962;2023-04-15T05:27:05;6.32;;;2.38;;
71104;SDS011;58760;48.716;8.962;2023-04-15T05:29:32;7.15;;;2.17;;
71104;SDS011;58760;48.716;8.962;2023-04-15T05:31:58;7.25;;;2.10;;
71104;SDS011;58760;48.716;8.962;2023-04-15T05:34:23;7.95;;;2.15;;
71104;SDS011;58760;48.716;8.962;2023-04-15T05:36:49;6.40;;;2.13;;
71104;SDS011;58760;48.716;8.962;2023-04-15T05:39:14;5.40;;;2.05;;
71104;SDS011;58760;48.716;8.962;2023-04-15T05:41:40;7.15;;;2.03;;
71104;SDS011;58760;48.716;8.962;2023-04-15T05:44:05;5.47;;;2.17;;
71104;SDS011;58760;48.716;8.962;2023-04-15T05:46:31;6.22;;;1.95;;
71104;SDS011;58760;48.716;8.962;2023-04-15T05:48:56;7.07;;;2.03;;
71104;SDS011;58760;48.716;8.962;2023-04-15T05:51:22;8.05;;;2.53;;
71104;SDS011;58760;48.716;8.962;2023-04-15T05:53:47;6.53;;;2.38;;
71104;SDS011;58760;48.716;8.962;2023-04-15T05:56:12;6.88;;;2.20;;
71104;SDS011;58760;48.716;8.962;2023-04-15T05:58:38;6.32;;;2.38;;
71104;SDS011;58760;48.716;8.962;2023-04-15T06:01:03;6.97;;;2.15;;
71104;SDS011;58760;48.716;8.962;2023-04-15T06:03:30;6.82;;;2.40;;
71104;SDS011;58760;48.716;8.962;2023-04-15T06:05:55;7.97;;;2.50;;
71104;SDS011;58760;48.716;8.962;2023-04-15T06:08:21;7.18;;;2.67;;
71104;SDS011;58760;48.716;8.962;2023-04-15T06:10:46;8.82;;;2.90;;
71104;SDS011;58760;48.716;8.962;2023-04-15T06:13:12;7.38;;;2.53;;
71104;SDS011;58760;48.716;8.962;2023-04-15T06:15:37;5.53;;;2.30;;
71104;SDS011;58760;48.716;8.962;2023-04-15T06:18:03;10.77;;;2.60;;
71104;SDS011;58760;48.716;8.962;2023-04-15T06:20:29;7.18;;;2.42;;
71104;SDS011;58760;48.716;8.962;2023-04-15T06:22:54;7.72;;;2.55;;
71104;SDS011;58760;48.716;8.962;2023-04-15T06:25:20;8.10;;;2.40;;
71104;SDS011;58760;48.716;8.962;2023-04-15T06:27:46;6.75;;;2.22;;
71104;SDS011;58760;48.716;8.962;2023-04-15T06:30:12;7.85;;;2.40;;
71104;SDS011;58760;48.716;8.962;2023-04-15T06:32:37;6.22;;;2.40;;
71104;SDS011;58760;48.716;8.962;2023-04-15T06:35:03;5.07;;;2.17;;
71104;SDS011;58760;48.716;8.962;2023-04-15T06:37:28;6.78;;;2.65;;
71104;SDS011;58760;48.716;8.962;2023-04-15T06:39:54;7.60;;;2.65;;
71104;SDS011;58760;48.716;8.962;2023-04-15T06:42:20;8.43;;;2.75;;
71104;SDS011;58760;48.716;8.962;2023-04-15T06:44:45;8.32;;;2.88;;
71104;SDS011;58760;48.716;8.962;2023-04-15T06:47:11;8.18;;;2.63;;
71104;SDS011;58760;48.716;8.962;2023-04-15T06:49:38;8.32;;;2.78;;
71104;SDS011;58760;48.716;8.962;2023-04-15T06:52:04;11.23;;;2.97;;
71104;SDS011;58760;48.716;8.962;2023-04-15T06:54:29;6.60;;;3.08;;
71104;SDS011;58760;48.716;8.962;2023-04-15T06:56:55;6.32;;;2.65;;
71104;SDS011;58760;48.716;8.962;2023-04-15T06:59:20;7.30;;;2.58;;
71104;SDS011;58760;48.716;8.962;2023-04-15T07:01:46;6.38;;;2.58;;
71104;SDS011;58760;48.716;8.962;2023-04-15T07:04:11;8.60;;;2.95;;
71104;SDS011;58760;48.716;8.962;2023-04-15T07:06:37;11.68;;;3.22;;
71104;SDS011;58760;48.716;8.962;2023-04-15T07:09:02;7.20;;;2.80;;
71104;SDS011;58760;48.716;8.962;2023-04-15T07:11:29;7.03;;;2.67;;
71104;SDS011;58760;48.716;8.962;2023-04-15T07:13:56;9.93;;;2.72;;
71104;SDS011;58760;48.716;8.962;2023-04-15T07:16:22;9.10;;;3.15;;
71104;SDS011;58760;48.716;8.962;2023-04-15T07:18:47;6.25;;;2.30;;
71104;SDS011;58760;48.716;8.962;2023-04-15T07:21:13;6.78;;;2.60;;
71104;SDS011;58760;48.716;8.962;2023-04-15T07:23:38;6.93;;;2.53;;
71104;SDS011;58760;48.716;8.962;2023-04-15T07:26:04;8.02;;;2.85;;
71104;SDS011;58760;48.716;8.962;2023-04-15T07:28:29;7.90;;;2.53;;
71104;SDS011;58760;48.716;8.962;2023-04-15T07:30:55;6.85;;;2.22;;
71104;SDS011;58760;48.716;8.962;2023-04-15T07:33:24;8.60;;;2.20;;
71104;SDS011;58760;48.716;8.962;2023-04-15T07:35:49;11.32;;;2.50;;
71104;SDS011;58760;48.716;8.962;2023-04-15T07:38:14;9.05;;;2.78;;
71104;SDS011;58760;48.716;8.962;2023-04-15T07:40:40;6.40;;;2.22;;
71104;SDS011;58760;48.716;8.962;2023-04-15T07:43:06;7.78;;;2.55;;
71104;SDS011;58760;48.716;8.962;2023-04-15T07:45:33;6.20;;;2.17;;
71104;SDS011;58760;48.716;8.962;2023-04-15T07:47:59;10.35;;;2.40;;
71104;SDS011;58760;48.716;8.962;2023-04-15T07:50:25;7.82;;;2.45;;
71104;SDS011;58760;48.716;8.962;2023-04-15T07:52:51;6.90;;;2.30;;
71104;SDS011;58760;48.716;8.962;2023-04-15T07:55:17;6.40;;;2.15;;
71104;SDS011;58760;48.716;8.962;2023-04-15T07:57:45;5.72;;;2.38;;
71104;SDS011;58760;48.716;8.962;2023-04-15T08:00:11;7.65;;;2.20;;
71104;SDS011;58760;48.716;8.962;2023-04-15T08:02:37;7.35;;;2.45;;
71104;SDS011;58760;48.716;8.962;2023-04-15T08:05:03;7.63;;;2.28;;
71104;SDS011;58760;48.716;8.962;2023-04-15T08:07:29;10.52;;;2.80;;
71104;SDS011;58760;48.716;8.962;2023-04-15T08:09:55;8.43;;;2.30;;
71104;SDS011;58760;48.716;8.962;2023-04-15T08:12:20;5.68;;;2.20;;
71104;SDS011;58760;48.716;8.962;2023-04-15T08:14:46;5.97;;;2.30;;
71104;SDS011;58760;48.716;8.962;2023-04-15T08:17:11;11.48;;;2.70;;
71104;SDS011;58760;48.716;8.962;2023-04-15T08:19:37;6.68;;;2.50;;
71104;SDS011;58760;48.716;8.962;2023-04-15T08:22:03;7.63;;;2.55;;
71104;SDS011;58760;48.716;8.962;2023-04-15T08:24:28;6.25;;;2.60;;
71104;SDS011;58760;48.716;8.962;2023-04-15T08:26:55;6.07;;;2.28;;
71104;SDS011;58760;48.716;8.962;2023-04-15T08:29:21;8.43;;;2.05;;
71104;SDS011;58760;48.716;8.962;2023-04-15T08:31:47;5.55;;;1.80;;
71104;SDS011;58760;48.716;8.962;2023-04-15T08:34:12;4.93;;;1.58;;
71104;SDS011;58760;48.716;8.962;2023-04-15T08:36:39;5.63;;;1.45;;
71104;SDS011;58760;48.716;8.962;2023-04-15T08:39:05;8.32;;;1.40;;
71104;SDS011;58760;48.716;8.962;2023-04-15T08:41:44;8.15;;;1.65;;
71104;SDS011;58760;48.716;8.962;2023-04-15T08:44:13;6.60;;;1.65;;
71104;SDS011;58760;48.716;8.962;2023-04-15T08:46:40;7.38;;;1.50;;
71104;SDS011;58760;48.716;8.962;2023-04-15T08:49:07;7.05;;;1.55;;
71104;SDS011;58760;48.716;8.962;2023-04-15T08:51:35;7.72;;;1.73;;
71104;SDS011;58760;48.716;8.962;2023-04-15T08:54:01;6.82;;;1.70;;
71104;SDS011;58760;48.716;8.962;2023-04-15T08:56:29;9.65;;;1.70;;
71104;SDS011;58760;48.716;8.962;2023-04-15T08:58:58;6.10;;;1.73;;
71104;SDS011;58760;48.716;8.962;2023-04-15T09:01:24;5.88;;;1.50;;
71104;SDS011;58760;48.716;8.962;2023-04-15T09:03:50;3.78;;;1.40;;
71104;SDS011;58760;48.716;8.962;2023-04-15T09:06:19;4.20;;;1.50;;
71104;SDS011;58760;48.716;8.962;2023-04-15T09:08:45;4.05;;;1.55;;
71104;SDS011;58760;48.716;8.962;2023-04-15T09:11:10;5.65;;;1.70;;
71104;SDS011;58760;48.716;8.962;2023-04-15T09:13:36;5.40;;;1.63;;
71104;SDS011;58760;48.716;8.962;2023-04-15T09:16:02;4.90;;;1.40;;
71104;SDS011;58760;48.716;8.962;2023-04-15T09:18:31;6.68;;;1.73;;
71104;SDS011;58760;48.716;8.962;2023-04-15T09:21:05;9.43;;;2.30;;
71104;SDS011;58760;48.716;8.962;2023-04-15T09:23:39;6.32;;;1.33;;
71104;SDS011;58760;48.716;8.962;2023-04-15T09:26:18;4.63;;;1.30;;
71104;SDS011;58760;48.716;8.962;2023-04-15T09:28:44;5.25;;;1.38;;
71104;SDS011;58760;48.716;8.962;2023-04-15T09:31:09;7.05;;;1.65;;
71104;SDS011;58760;48.716;8.962;2023-04-15T09:33:35;6.28;;;1.92;;
71104;SDS011;58760;48.716;8.962;2023-04-15T09:36:17;5.68;;;1.52;;
71104;SDS011;58760;48.716;8.962;2023-04-15T09:39:04;3.50;;;1.30;;
71104;SDS011;58760;48.716;8.962;2023-04-15T09:41:29;6.82;;;1.50;;
71104;SDS011;58760;48.716;8.962;2023-04-15T09:43:55;4.13;;;1.38;;
71104;SDS011;58760;48.716;8.962;2023-04-15T09:46:20;10.05;;;1.80;;
71104;SDS011;58760;48.716;8.962;2023-04-15T09:49:06;3.65;;;1.58;;
71104;SDS011;58760;48.716;8.962;2023-04-15T09:51:36;5.05;;;1.65;;
71104;SDS011;58760;48.716;8.962;2023-04-15T09:54:02;5.95;;;1.30;;
71104;SDS011;58760;48.716;8.962;2023-04-15T09:56:33;7.32;;;1.58;;
71104;SDS011;58760;48.716;8.962;2023-04-15T09:59:05;4.35;;;1.60;;
71104;SDS011;58760;48.716;8.962;2023-04-15T10:01:31;6.70;;;1.52;;
71104;SDS011;58760;48.716;8.962;2023-04-15T10:03:57;5.70;;;1.50;;
71104;SDS011;58760;48.716;8.962;2023-04-15T10:06:26;7.00;;;1.58;;
71104;SDS011;58760;48.716;8.962;2023-04-15T10:11:19;5.15;;;1.30;;
71104;SDS011;58760;48.716;8.962;2023-04-15T10:13:48;7.70;;;1.80;;
71104;SDS011;58760;48.716;8.962;2023-04-15T10:16:15;4.90;;;2.13;;
71104;SDS011;58760;48.716;8.962;2023-04-15T10:18:44;8.32;;;2.60;;
71104;SDS011;58760;48.716;8.962;2023-04-15T10:21:10;7.68;;;2.10;;
71104;SDS011;58760;48.716;8.962;2023-04-15T10:23:38;5.88;;;1.63;;
71104;SDS011;58760;48.716;8.962;2023-04-15T10:26:04;7.90;;;1.70;;
71104;SDS011;58760;48.716;8.962;2023-04-15T10:28:30;4.53;;;1.60;;
71104;SDS011;58760;48.716;8.962;2023-04-15T10:30:56;8.10;;;1.65;;
71104;SDS011;58760;48.716;8.962;2023-04-15T10:33:24;4.55;;;1.60;;
71104;SDS011;58760;48.716;8.962;2023-04-15T10:35:50;3.92;;;1.23;;
71104;SDS011;58760;48.716;8.962;2023-04-15T10:41:13;6.85;;;1.98;;
71104;SDS011;58760;48.716;8.962;2023-04-15T10:43:39;7.50;;;1.55;;
71104;SDS011;58760;48.716;8.962;2023-04-15T10:46:09;3.60;;;1.30;;
71104;SDS011;58760;48.716;8.962;2023-04-15T10:48:35;5.85;;;1.35;;
71104;SDS011;58760;48.716;8.962;2023-04-15T10:51:00;5.43;;;1.40;;
71104;SDS011;58760;48.716;8.962;2023-04-15T10:53:29;4.97;;;1.42;;
71104;SDS011;58760;48.716;8.962;2023-04-15T10:55:56;5.13;;;1.30;;
71104;SDS011;58760;48.716;8.962;2023-04-15T10:58:23;5.93;;;1.40;;
71104;SDS011;58760;48.716;8.962;2023-04-15T11:00:50;6.78;;;1.83;;
71104;SDS011;58760;48.716;8.962;2023-04-15T11:03:33;4.38;;;1.17;;
71104;SDS011;58760;48.716;8.962;2023-04-15T11:06:02;5.18;;;1.58;;
71104;SDS011;58760;48.716;8.962;2023-04-15T11:09:00;4.82;;;1.17;;
71104;SDS011;58760;48.716;8.962;2023-04-15T11:14:26;5.63;;;1.30;;
71104;SDS011;58760;48.716;8.962;2023-04-15T11:16:51;5.07;;;1.30;;
71104;SDS011;58760;48.716;8.962;2023-04-15T11:19:17;8.35;;;1.80;;
71104;SDS011;58760;48.716;8.962;2023-04-15T11:21:43;7.05;;;1.25;;
71104;SDS011;58760;48.716;8.962;2023-04-15T11:24:08;6.65;;;1.73;;
71104;SDS011;58760;48.716;8.962;2023-04-15T11:26:33;5.10;;;1.55;;
71104;SDS011;58760;48.716;8.962;2023-04-15T11:28:59;6.68;;;2.03;;
71104;SDS011;58760;48.716;8.962;2023-04-15T11:33:56;7.32;;;2.00;;
71104;SDS011;58760;48.716;8.962;2023-04-15T11:36:24;7.60;;;1.90;;
71104;SDS011;58760;48.716;8.962;2023-04-15T11:38:51;5.65;;;1.60;;
71104;SDS011;58760;48.716;8.962;2023-04-15T11:41:20;7.72;;;1.70;;
71104;SDS011;58760;48.716;8.962;2023-04-15T11:43:46;8.00;;;2.25;;
71104;SDS011;58760;48.716;8.962;2023-04-15T11:46:12;5.50;;;2.03;;
71104;SDS011;58760;48.716;8.962;2023-04-15T11:48:40;7.35;;;2.15;;
71104;SDS011;58760;48.716;8.962;2023-04-15T11:51:08;7.10;;;2.00;;
71104;SDS011;58760;48.716;8.962;2023-04-15T11:53:37;8.50;;;1.92;;
71104;SDS011;58760;48.716;8.962;2023-04-15T11:56:07;6.40;;;1.92;;
71104;SDS011;58760;48.716;8.962;2023-04-15T11:58:40;6.25;;;2.40;;
71104;SDS011;58760;48.716;8.962;2023-04-15T12:01:07;6.57;;;2.50;;
71104;SDS011;58760;48.716;8.962;2023-04-15T12:06:06;7.32;;;2.38;;
71104;SDS011;58760;48.716;8.962;2023-04-15T12:11:16;10.02;;;2.35;;
71104;SDS011;58760;48.716;8.962;2023-04-15T12:13:46;10.90;;;3.17;;
71104;SDS011;58760;48.716;8.962;2023-04-15T12:16:22;7.88;;;2.55;;
71104;SDS011;58760;48.716;8.962;2023-04-15T12:18:52;7.88;;;2.85;;
71104;SDS011;58760;48.716;8.962;2023-04-15T12:21:23;9.75;;;2.33;;
71104;SDS011;58760;48.716;8.962;2023-04-15T12:23:54;5.35;;;2.33;;
71104;SDS011;58760;48.716;8.962;2023-04-15T12:26:28;11.15;;;2.63;;
71104;SDS011;58760;48.716;8.962;2023-04-15T12:29:09;8.02;;;2.50;;
71104;SDS011;58760;48.716;8.962;2023-04-15T12:31:35;7.57;;;3.00;;
71104;SDS011;58760;48.716;8.962;2023-04-15T12:34:02;9.32;;;3.70;;
71104;SDS011;58760;48.716;8.962;2023-04-15T12:36:31;11.50;;;3.15;;
71104;SDS011;58760;48.716;8.962;2023-04-15T12:39:00;12.40;;;3.25;;
71104;SDS011;58760;48.716;8.962;2023-04-15T12:41:27;8.23;;;2.72;;
71104;SDS011;58760;48.716;8.962;2023-04-15T12:43:52;7.57;;;2.65;;
71104;SDS011;58760;48.716;8.962;2023-04-15T12:46:18;8.43;;;2.33;;
71104;SDS011;58760;48.716;8.962;2023-04-15T12:48:44;6.07;;;2.30;;
71104;SDS011;58760;48.716;8.962;2023-04-15T12:51:09;7.82;;;2.67;;
71104;SDS011;58760;48.716;8.962;2023-04-15T12:53:35;12.23;;;2.40;;
71104;SDS011;58760;48.716;8.962;2023-04-15T12:56:01;8.05;;;2.65;;
71104;SDS011;58760;48.716;8.962;2023-04-15T12:58:26;7.97;;;2.38;;
71104;SDS011;58760;48.716;8.962;2023-04-15T13:00:52;6.28;;;2.20;;
71104;SDS011;58760;48.716;8.962;2023-04-15T13:03:17;6.93;;;2.50;;
71104;SDS011;58760;48.716;8.962;2023-04-15T13:05:43;9.55;;;2.65;;
71104;SDS011;58760;48.716;8.962;2023-04-15T13:08:08;8.00;;;2.55;;
71104;SDS011;58760;48.716;8.962;2023-04-15T13:10:34;8.32;;;3.05;;
71104;SDS011;58760;48.716;8.962;2023-04-15T13:13:02;6.07;;;2.60;;
71104;SDS011;58760;48.716;8.962;2023-04-15T13:15:28;9.40;;;2.85;;
71104;SDS011;58760;48.716;8.962;2023-04-15T13:17:53;8.07;;;2.60;;
71104;SDS011;58760;48.716;8.962;2023-04-15T13:20:19;7.45;;;2.65;;
71104;SDS011;58760;48.716;8.962;2023-04-15T13:22:44;6.95;;;2.60;;
71104;SDS011;58760;48.716;8.962;2023-04-15T13:25:10;5.93;;;2.22;;
71104;SDS011;58760;48.716;8.962;2023-04-15T13:27:35;7.07;;;2.40;;
71104;SDS011;58760;48.716;8.962;2023-04-15T13:30:01;6.22;;;2.30;;
71104;SDS011;58760;48.716;8.962;2023-04-15T13:32:27;6.50;;;2.28;;
71104;SDS011;58760;48.716;8.962;2023-04-15T13:34:52;6.63;;;2.15;;
71104;SDS011;58760;48.716;8.962;2023-04-15T13:37:21;8.13;;;2.67;;
71104;SDS011;58760;48.716;8.962;2023-04-15T13:39:50;7.68;;;2.70;;
71104;SDS011;58760;48.716;8.962;2023-04-15T13:42:15;10.07;;;3.70;;
71104;SDS011;58760;48.716;8.962;2023-04-15T13:44:41;6.57;;;2.95;;
71104;SDS011;58760;48.716;8.962;2023-04-15T13:47:06;6.10;;;2.60;;
71104;SDS011;58760;48.716;8.962;2023-04-15T13:49:31;6.90;;;2.80;;
71104;SDS011;58760;48.716;8.962;2023-04-15T13:51:57;10.10;;;3.10;;
71104;SDS011;58760;48.716;8.962;2023-04-15T13:54:22;7.28;;;2.95;;
71104;SDS011;58760;48.716;8.962;2023-04-15T13:56:47;7.05;;;2.60;;
71104;SDS011;58760;48.716;8.962;2023-04-15T13:59:13;8.60;;;2.60;;
71104;SDS011;58760;48.716;8.962;2023-04-15T14:01:38;6.32;;;2.33;;
71104;SDS011;58760;48.716;8.962;2023-04-15T14:04:05;3.85;;;2.00;;
71104;SDS011;58760;48.716;8.962;2023-04-15T14:06:30;6.00;;;2.05;;
71104;SDS011;58760;48.716;8.962;2023-04-15T14:08:56;5.22;;;1.98;;
71104;SDS011;58760;48.716;8.962;2023-04-15T14:11:21;4.85;;;1.60;;
71104;SDS011;58760;48.716;8.962;2023-04-15T14:13:47;3.42;;;1.27;;
71104;SDS011;58760;48.716;8.962;2023-04-15T14:16:12;4.47;;;1.35;;
71104;SDS011;58760;48.716;8.962;2023-04-15T14:18:38;4.53;;;1.40;;
71104;SDS011;58760;48.716;8.962;2023-04-15T14:21:04;2.13;;;1.15;;
71104;SDS011;58760;48.716;8.962;2023-04-15T14:23:31;4.57;;;1.30;;
71104;SDS011;58760;48.716;8.962;2023-04-15T14:25:56;4.72;;;1.33;;
71104;SDS011;58760;48.716;8.962;2023-04-15T14:28:22;5.50;;;1.50;;
71104;SDS011;58760;48.716;8.962;2023-04-15T14:33:14;3.47;;;1.50;;
71104;SDS011;58760;48.716;8.962;2023-04-15T14:35:39;3.97;;;1.55;;
71104;SDS011;58760;48.716;8.962;2023-04-15T14:38:05;4.65;;;1.60;;
71104;SDS011;58760;48.716;8.962;2023-04-15T14:40:34;5.22;;;1.48;;
71104;SDS011;58760;48.716;8.962;2023-04-15T14:42:59;5.18;;;1.63;;
71104;SDS011;58760;48.716;8.962;2023-04-15T14:45:25;4.95;;;1.58;;
71104;SDS011;58760;48.716;8.962;2023-04-15T14:47:50;5.60;;;1.60;;
71104;SDS011;58760;48.716;8.962;2023-04-15T14:50:17;5.57;;;1.83;;
71104;SDS011;58760;48.716;8.962;2023-04-15T14:52:42;7.93;;;1.85;;
71104;SDS011;58760;48.716;8.962;2023-04-15T14:55:08;4.22;;;1.63;;
71104;SDS011;58760;48.716;8.962;2023-04-15T15:00:00;5.50;;;1.80;;
71104;SDS011;58760;48.716;8.962;2023-04-15T15:02:25;5.28;;;1.65;;
71104;SDS011;58760;48.716;8.962;2023-04-15T15:04:50;4.07;;;1.42;;
71104;SDS011;58760;48.716;8.962;2023-04-15T15:07:16;6.10;;;1.60;;